LGKC

Kithira Airport

Kithira Island, Greece
TAF LGKC 260500Z 2606/2615 VRB05KT 9999 FEW018 BECMG 2609/2611 27010KT
Issued Valid From Valid To
Apr-26 @ 05:00 UTC
(an hour ago)
Apr-26 @ 06:00 UTC
(2 minutes ago)
Apr-26 @ 15:00 UTC
(in 9 hours)
Apr-26 @ 06:00 to Apr-26 @ 09:00
TAF LGKC 260500Z 2606/2615 VRB05KT 9999 FEW018
Wind Visibility Clouds
Variable at 5 knots 10,000+ meters
  • Few at 1,800' AGL
Becoming Apr-26 @ 09:00 to Apr-26 @ 15:00
BECMG 2609/2611 27010KT
Wind Visibility Clouds
270° at 10 knots 10,000+ meters
  • Few at 1,800' AGL
TAF LGKC 260500Z 2606/2615 VRB05KT 9999 FEW018 BECMG 2609/2611 27010KT
Issued Apr-26 @ 05:00 UTC
(an hour ago)
Valid From Apr-26 @ 06:00 UTC
(2 minutes ago)
Valid To Apr-26 @ 15:00 UTC
(in 9 hours)
Apr-26 @ 06:00 - Apr-26 @ 09:00
Wind Visibility
Variable at 5 knots 10,000+ meters
Clouds
  • Few at 1,800' AGL
Becoming Apr-26 @ 09:00 - Apr-26 @ 15:00
Wind Visibility
270° at 10 knots 10,000+ meters
Clouds
  • Few at 1,800' AGL